sensor_id;sensor_type;location;lat;lon;timestamp;temperature;humidity
4249;DHT22;8404;48.752;12.922;2022-08-21T00:01:10;17.50;99.90
4249;DHT22;8404;48.752;12.922;2022-08-21T00:03:39;17.50;99.90
4249;DHT22;8404;48.752;12.922;2022-08-21T00:06:09;17.50;99.90
4249;DHT22;8404;48.752;12.922;2022-08-21T00:08:40;17.50;99.90
4249;DHT22;8404;48.752;12.922;2022-08-21T00:11:09;17.50;99.90
4249;DHT22;8404;48.752;12.922;2022-08-21T00:13:38;17.50;99.90
4249;DHT22;8404;48.752;12.922;2022-08-21T00:16:06;17.50;99.90
4249;DHT22;8404;48.752;12.922;2022-08-21T00:18:35;17.50;99.90
4249;DHT22;8404;48.752;12.922;2022-08-21T00:21:04;17.50;99.90
4249;DHT22;8404;48.752;12.922;2022-08-21T00:23:34;17.50;99.90
4249;DHT22;8404;48.752;12.922;2022-08-21T00:26:03;17.50;99.90
4249;DHT22;8404;48.752;12.922;2022-08-21T00:28:32;17.60;99.90
4249;DHT22;8404;48.752;12.922;2022-08-21T00:31:01;17.50;99.90
4249;DHT22;8404;48.752;12.922;2022-08-21T00:33:31;17.50;99.90
4249;DHT22;8404;48.752;12.922;2022-08-21T00:36:00;17.50;99.90
4249;DHT22;8404;48.752;12.922;2022-08-21T00:38:28;17.50;99.90
4249;DHT22;8404;48.752;12.922;2022-08-21T00:41:01;17.50;99.90
4249;DHT22;8404;48.752;12.922;2022-08-21T00:43:50;17.50;99.90
4249;DHT22;8404;48.752;12.922;2022-08-21T00:46:19;17.50;99.90
4249;DHT22;8404;48.752;12.922;2022-08-21T00:48:54;17.50;99.90
4249;DHT22;8404;48.752;12.922;2022-08-21T00:51:31;17.50;99.90
4249;DHT22;8404;48.752;12.922;2022-08-21T00:54:05;17.50;99.90
4249;DHT22;8404;48.752;12.922;2022-08-21T00:56:47;17.50;99.90
4249;DHT22;8404;48.752;12.922;2022-08-21T00:59:18;17.50;99.90
4249;DHT22;8404;48.752;12.922;2022-08-21T01:01:48;17.60;99.90
4249;DHT22;8404;48.752;12.922;2022-08-21T01:04:17;17.50;99.90
4249;DHT22;8404;48.752;12.922;2022-08-21T01:06:46;17.60;99.90
4249;DHT22;8404;48.752;12.922;2022-08-21T01:09:15;17.60;99.90
4249;DHT22;8404;48.752;12.922;2022-08-21T01:11:43;17.60;99.90
4249;DHT22;8404;48.752;12.922;2022-08-21T01:14:14;17.60;99.90
4249;DHT22;8404;48.752;12.922;2022-08-21T01:16:45;17.60;99.90
4249;DHT22;8404;48.752;12.922;2022-08-21T01:19:14;17.70;99.90
4249;DHT22;8404;48.752;12.922;2022-08-21T01:21:45;17.60;99.90
4249;DHT22;8404;48.752;12.922;2022-08-21T01:24:13;17.70;99.90
4249;DHT22;8404;48.752;12.922;2022-08-21T01:26:42;17.70;99.90
4249;DHT22;8404;48.752;12.922;2022-08-21T01:29:14;17.70;99.90
4249;DHT22;8404;48.752;12.922;2022-08-21T01:31:44;17.70;99.90
4249;DHT22;8404;48.752;12.922;2022-08-21T01:34:13;17.70;99.90
4249;DHT22;8404;48.752;12.922;2022-08-21T01:36:42;17.70;99.90
4249;DHT22;8404;48.752;12.922;2022-08-21T01:39:13;17.70;99.90
4249;DHT22;8404;48.752;12.922;2022-08-21T01:41:42;17.70;99.90
4249;DHT22;8404;48.752;12.922;2022-08-21T01:44:10;17.80;99.90
4249;DHT22;8404;48.752;12.922;2022-08-21T01:46:38;17.70;99.90
4249;DHT22;8404;48.752;12.922;2022-08-21T01:49:07;17.70;99.90
4249;DHT22;8404;48.752;12.922;2022-08-21T01:51:36;17.70;99.90
4249;DHT22;8404;48.752;12.922;2022-08-21T01:54:04;17.70;99.90
4249;DHT22;8404;48.752;12.922;2022-08-21T01:56:38;17.60;99.90
4249;DHT22;8404;48.752;12.922;2022-08-21T01:59:07;17.60;99.90
4249;DHT22;8404;48.752;12.922;2022-08-21T02:01:35;17.70;99.90
4249;DHT22;8404;48.752;12.922;2022-08-21T02:04:06;17.60;99.90
4249;DHT22;8404;48.752;12.922;2022-08-21T02:06:36;17.60;99.90
4249;DHT22;8404;48.752;12.922;2022-08-21T02:09:06;17.70;99.90
4249;DHT22;8404;48.752;12.922;2022-08-21T02:11:37;17.70;99.90
4249;DHT22;8404;48.752;12.922;2022-08-21T02:14:07;17.70;99.90
4249;DHT22;8404;48.752;12.922;2022-08-21T02:16:36;17.70;99.90
4249;DHT22;8404;48.752;12.922;2022-08-21T02:19:05;17.60;99.90
4249;DHT22;8404;48.752;12.922;2022-08-21T02:21:33;17.70;99.90
4249;DHT22;8404;48.752;12.922;2022-08-21T02:24:03;17.60;99.90
4249;DHT22;8404;48.752;12.922;2022-08-21T02:26:32;17.60;99.90
4249;DHT22;8404;48.752;12.922;2022-08-21T02:29:02;17.60;99.90
4249;DHT22;8404;48.752;12.922;2022-08-21T02:31:31;17.60;99.90
4249;DHT22;8404;48.752;12.922;2022-08-21T02:33:59;17.60;99.90
4249;DHT22;8404;48.752;12.922;2022-08-21T02:36:28;17.70;99.90
4249;DHT22;8404;48.752;12.922;2022-08-21T02:38:56;17.70;99.90
4249;DHT22;8404;48.752;12.922;2022-08-21T02:41:25;17.70;99.90
4249;DHT22;8404;48.752;12.922;2022-08-21T02:43:53;17.70;99.90
4249;DHT22;8404;48.752;12.922;2022-08-21T02:46:23;17.70;99.90
4249;DHT22;8404;48.752;12.922;2022-08-21T02:48:52;17.70;99.90
4249;DHT22;8404;48.752;12.922;2022-08-21T02:51:20;17.70;99.90
4249;DHT22;8404;48.752;12.922;2022-08-21T02:53:49;17.80;99.90
4249;DHT22;8404;48.752;12.922;2022-08-21T02:56:20;17.70;99.90
4249;DHT22;8404;48.752;12.922;2022-08-21T02:58:51;17.70;99.90
4249;DHT22;8404;48.752;12.922;2022-08-21T03:01:21;17.70;99.90
4249;DHT22;8404;48.752;12.922;2022-08-21T03:03:51;17.70;99.90
4249;DHT22;8404;48.752;12.922;2022-08-21T03:06:22;17.70;99.90
4249;DHT22;8404;48.752;12.922;2022-08-21T03:08:51;17.70;99.90
4249;DHT22;8404;48.752;12.922;2022-08-21T03:11:20;17.70;99.90
4249;DHT22;8404;48.752;12.922;2022-08-21T03:13:48;17.70;99.90
4249;DHT22;8404;48.752;12.922;2022-08-21T03:16:16;17.70;99.90
4249;DHT22;8404;48.752;12.922;2022-08-21T03:18:45;17.70;99.90
4249;DHT22;8404;48.752;12.922;2022-08-21T03:21:15;17.80;99.90
4249;DHT22;8404;48.752;12.922;2022-08-21T03:23:45;17.80;99.90
4249;DHT22;8404;48.752;12.922;2022-08-21T03:26:14;17.80;99.90
4249;DHT22;8404;48.752;12.922;2022-08-21T03:28:42;17.90;99.90
4249;DHT22;8404;48.752;12.922;2022-08-21T03:31:10;17.80;99.90
4249;DHT22;8404;48.752;12.922;2022-08-21T03:33:39;17.80;99.90
4249;DHT22;8404;48.752;12.922;2022-08-21T03:36:08;17.80;99.90
4249;DHT22;8404;48.752;12.922;2022-08-21T03:38:38;17.70;99.90
4249;DHT22;8404;48.752;12.922;2022-08-21T03:41:07;17.70;99.90
4249;DHT22;8404;48.752;12.922;2022-08-21T03:43:36;17.80;99.90
4249;DHT22;8404;48.752;12.922;2022-08-21T03:46:06;17.70;99.90
4249;DHT22;8404;48.752;12.922;2022-08-21T03:48:36;17.60;99.90
4249;DHT22;8404;48.752;12.922;2022-08-21T03:51:05;17.60;99.90
4249;DHT22;8404;48.752;12.922;2022-08-21T03:53:34;17.70;99.90
4249;DHT22;8404;48.752;12.922;2022-08-21T03:56:05;17.60;99.90
4249;DHT22;8404;48.752;12.922;2022-08-21T03:58:33;17.50;99.90
4249;DHT22;8404;48.752;12.922;2022-08-21T04:01:04;17.50;99.90
4249;DHT22;8404;48.752;12.922;2022-08-21T04:03:35;17.40;99.90
4249;DHT22;8404;48.752;12.922;2022-08-21T04:06:04;17.50;99.90
4249;DHT22;8404;48.752;12.922;2022-08-21T04:08:33;17.50;99.90
4249;DHT22;8404;48.752;12.922;2022-08-21T04:11:04;17.50;99.90
4249;DHT22;8404;48.752;12.922;2022-08-21T04:13:33;17.50;99.90
4249;DHT22;8404;48.752;12.922;2022-08-21T04:16:10;17.40;99.90
4249;DHT22;8404;48.752;12.922;2022-08-21T04:18:39;17.40;99.90
4249;DHT22;8404;48.752;12.922;2022-08-21T04:21:09;17.40;99.90
4249;DHT22;8404;48.752;12.922;2022-08-21T04:23:39;17.40;99.90
4249;DHT22;8404;48.752;12.922;2022-08-21T04:26:08;17.50;99.90
4249;DHT22;8404;48.752;12.922;2022-08-21T04:28:37;17.50;99.90
4249;DHT22;8404;48.752;12.922;2022-08-21T04:31:05;17.50;99.90
4249;DHT22;8404;48.752;12.922;2022-08-21T04:33:34;17.50;99.90
4249;DHT22;8404;48.752;12.922;2022-08-21T04:36:03;17.50;99.90
4249;DHT22;8404;48.752;12.922;2022-08-21T04:38:32;17.60;99.90
4249;DHT22;8404;48.752;12.922;2022-08-21T04:41:04;17.60;99.90
4249;DHT22;8404;48.752;12.922;2022-08-21T04:43:34;17.60;99.90
4249;DHT22;8404;48.752;12.922;2022-08-21T04:46:03;17.60;99.90
4249;DHT22;8404;48.752;12.922;2022-08-21T04:48:32;17.60;99.90
4249;DHT22;8404;48.752;12.922;2022-08-21T04:51:03;17.60;99.90
4249;DHT22;8404;48.752;12.922;2022-08-21T04:53:35;17.60;99.90
4249;DHT22;8404;48.752;12.922;2022-08-21T04:56:08;17.60;99.90
4249;DHT22;8404;48.752;12.922;2022-08-21T04:58:41;17.70;99.90
4249;DHT22;8404;48.752;12.922;2022-08-21T05:01:14;17.70;99.90
4249;DHT22;8404;48.752;12.922;2022-08-21T05:03:44;17.70;99.90
4249;DHT22;8404;48.752;12.922;2022-08-21T05:06:15;17.80;99.90
4249;DHT22;8404;48.752;12.922;2022-08-21T05:08:45;17.80;99.90
4249;DHT22;8404;48.752;12.922;2022-08-21T05:11:15;17.80;99.90
4249;DHT22;8404;48.752;12.922;2022-08-21T05:13:45;17.80;99.90
4249;DHT22;8404;48.752;12.922;2022-08-21T05:16:21;17.90;99.90
4249;DHT22;8404;48.752;12.922;2022-08-21T05:19:03;17.90;99.90
4249;DHT22;8404;48.752;12.922;2022-08-21T05:21:32;17.90;99.90
4249;DHT22;8404;48.752;12.922;2022-08-21T05:24:01;17.80;99.90
4249;DHT22;8404;48.752;12.922;2022-08-21T05:26:29;17.90;99.90
4249;DHT22;8404;48.752;12.922;2022-08-21T05:28:59;17.80;99.90
4249;DHT22;8404;48.752;12.922;2022-08-21T05:31:28;17.80;99.90
4249;DHT22;8404;48.752;12.922;2022-08-21T05:33:56;17.80;99.90
4249;DHT22;8404;48.752;12.922;2022-08-21T05:36:25;17.90;99.90
4249;DHT22;8404;48.752;12.922;2022-08-21T05:38:54;17.90;99.90
4249;DHT22;8404;48.752;12.922;2022-08-21T05:41:22;17.90;99.90
4249;DHT22;8404;48.752;12.922;2022-08-21T05:43:50;17.90;99.90
4249;DHT22;8404;48.752;12.922;2022-08-21T05:46:20;17.90;99.90
4249;DHT22;8404;48.752;12.922;2022-08-21T05:49:14;17.80;99.90
4249;DHT22;8404;48.752;12.922;2022-08-21T05:51:42;17.90;99.90
4249;DHT22;8404;48.752;12.922;2022-08-21T05:54:10;18.00;99.90
4249;DHT22;8404;48.752;12.922;2022-08-21T05:56:39;18.00;99.90
4249;DHT22;8404;48.752;12.922;2022-08-21T05:59:11;18.00;99.90
4249;DHT22;8404;48.752;12.922;2022-08-21T06:01:41;18.00;99.90
4249;DHT22;8404;48.752;12.922;2022-08-21T06:04:10;18.00;99.90
4249;DHT22;8404;48.752;12.922;2022-08-21T06:06:38;18.00;99.90
4249;DHT22;8404;48.752;12.922;2022-08-21T06:09:07;18.10;99.90
4249;DHT22;8404;48.752;12.922;2022-08-21T06:11:35;18.00;99.90
4249;DHT22;8404;48.752;12.922;2022-08-21T06:14:04;18.10;99.90
4249;DHT22;8404;48.752;12.922;2022-08-21T06:16:33;18.20;99.90
4249;DHT22;8404;48.752;12.922;2022-08-21T06:19:03;18.20;99.90
4249;DHT22;8404;48.752;12.922;2022-08-21T06:21:31;18.20;99.90
4249;DHT22;8404;48.752;12.922;2022-08-21T06:23:59;18.20;99.90
4249;DHT22;8404;48.752;12.922;2022-08-21T06:26:28;18.20;99.90
4249;DHT22;8404;48.752;12.922;2022-08-21T06:28:56;18.30;99.90
4249;DHT22;8404;48.752;12.922;2022-08-21T06:31:26;18.40;99.50
4249;DHT22;8404;48.752;12.922;2022-08-21T06:33:55;18.40;99.90
4249;DHT22;8404;48.752;12.922;2022-08-21T06:36:25;18.40;99.90
4249;DHT22;8404;48.752;12.922;2022-08-21T06:38:54;18.50;99.30
4249;DHT22;8404;48.752;12.922;2022-08-21T06:41:24;18.50;99.50
4249;DHT22;8404;48.752;12.922;2022-08-21T06:43:53;18.60;97.90
4249;DHT22;8404;48.752;12.922;2022-08-21T06:46:22;18.60;98.10
4249;DHT22;8404;48.752;12.922;2022-08-21T06:48:50;18.50;99.10
4249;DHT22;8404;48.752;12.922;2022-08-21T06:51:18;18.60;98.60
4249;DHT22;8404;48.752;12.922;2022-08-21T06:53:49;18.60;99.10
4249;DHT22;8404;48.752;12.922;2022-08-21T06:56:17;18.60;99.10
4249;DHT22;8404;48.752;12.922;2022-08-21T06:58:46;18.70;99.30
4249;DHT22;8404;48.752;12.922;2022-08-21T07:01:14;18.70;98.50
4249;DHT22;8404;48.752;12.922;2022-08-21T07:03:43;18.80;97.60
4249;DHT22;8404;48.752;12.922;2022-08-21T07:06:11;18.70;97.90
4249;DHT22;8404;48.752;12.922;2022-08-21T07:08:40;18.80;97.90
4249;DHT22;8404;48.752;12.922;2022-08-21T07:11:14;18.90;97.60
4249;DHT22;8404;48.752;12.922;2022-08-21T07:13:45;18.90;97.60
4249;DHT22;8404;48.752;12.922;2022-08-21T07:16:13;18.90;97.90
4249;DHT22;8404;48.752;12.922;2022-08-21T07:18:41;18.80;97.70
4249;DHT22;8404;48.752;12.922;2022-08-21T07:21:10;18.90;97.90
4249;DHT22;8404;48.752;12.922;2022-08-21T07:23:41;19.00;96.90
4249;DHT22;8404;48.752;12.922;2022-08-21T07:26:11;19.00;97.70
4249;DHT22;8404;48.752;12.922;2022-08-21T07:28:40;19.10;97.40
4249;DHT22;8404;48.752;12.922;2022-08-21T07:31:09;19.10;96.70
4249;DHT22;8404;48.752;12.922;2022-08-21T07:33:41;19.10;96.20
4249;DHT22;8404;48.752;12.922;2022-08-21T07:36:10;19.20;96.60
4249;DHT22;8404;48.752;12.922;2022-08-21T07:38:39;19.30;96.60
4249;DHT22;8404;48.752;12.922;2022-08-21T07:41:12;19.30;96.40
4249;DHT22;8404;48.752;12.922;2022-08-21T07:43:42;19.30;96.30
4249;DHT22;8404;48.752;12.922;2022-08-21T07:46:12;19.40;96.10
4249;DHT22;8404;48.752;12.922;2022-08-21T07:48:41;19.40;95.80
4249;DHT22;8404;48.752;12.922;2022-08-21T07:51:11;19.50;96.00
4249;DHT22;8404;48.752;12.922;2022-08-21T07:53:41;19.50;95.40
4249;DHT22;8404;48.752;12.922;2022-08-21T07:56:12;19.60;94.90
4249;DHT22;8404;48.752;12.922;2022-08-21T07:58:40;19.60;95.80
4249;DHT22;8404;48.752;12.922;2022-08-21T08:01:09;19.60;95.40
4249;DHT22;8404;48.752;12.922;2022-08-21T08:03:37;19.70;94.30
4249;DHT22;8404;48.752;12.922;2022-08-21T08:06:07;19.70;94.30
4249;DHT22;8404;48.752;12.922;2022-08-21T08:08:39;19.70;94.60
4249;DHT22;8404;48.752;12.922;2022-08-21T08:11:09;19.70;94.60
4249;DHT22;8404;48.752;12.922;2022-08-21T08:13:40;19.80;93.60
4249;DHT22;8404;48.752;12.922;2022-08-21T08:16:09;19.90;93.00
4249;DHT22;8404;48.752;12.922;2022-08-21T08:18:38;20.00;93.00
4249;DHT22;8404;48.752;12.922;2022-08-21T08:21:09;20.00;92.70
4249;DHT22;8404;48.752;12.922;2022-08-21T08:23:37;20.00;93.30
4249;DHT22;8404;48.752;12.922;2022-08-21T08:26:06;20.10;93.10
4249;DHT22;8404;48.752;12.922;2022-08-21T08:28:34;20.20;93.10
4249;DHT22;8404;48.752;12.922;2022-08-21T08:31:04;20.30;91.20
4249;DHT22;8404;48.752;12.922;2022-08-21T08:33:33;20.20;91.90
4249;DHT22;8404;48.752;12.922;2022-08-21T08:36:01;20.10;93.30
4249;DHT22;8404;48.752;12.922;2022-08-21T08:38:34;20.20;92.10
4249;DHT22;8404;48.752;12.922;2022-08-21T08:41:12;20.20;92.90
4249;DHT22;8404;48.752;12.922;2022-08-21T08:43:44;20.20;92.40
4249;DHT22;8404;48.752;12.922;2022-08-21T08:46:23;20.30;91.90
4249;DHT22;8404;48.752;12.922;2022-08-21T08:48:58;20.10;91.30
4249;DHT22;8404;48.752;12.922;2022-08-21T08:51:33;20.00;92.20
4249;DHT22;8404;48.752;12.922;2022-08-21T08:54:09;20.10;91.30
4249;DHT22;8404;48.752;12.922;2022-08-21T08:56:40;20.20;91.50
4249;DHT22;8404;48.752;12.922;2022-08-21T08:59:13;20.20;91.50
4249;DHT22;8404;48.752;12.922;2022-08-21T09:01:44;20.40;91.00
4249;DHT22;8404;48.752;12.922;2022-08-21T09:04:17;20.40;91.90
4249;DHT22;8404;48.752;12.922;2022-08-21T09:07:01;20.50;90.80
4249;DHT22;8404;48.752;12.922;2022-08-21T09:09:41;20.50;91.00
4249;DHT22;8404;48.752;12.922;2022-08-21T09:12:19;20.60;90.50
4249;DHT22;8404;48.752;12.922;2022-08-21T09:15:00;20.60;89.80
4249;DHT22;8404;48.752;12.922;2022-08-21T09:17:44;20.50;90.70
4249;DHT22;8404;48.752;12.922;2022-08-21T09:20:23;20.60;90.00
4249;DHT22;8404;48.752;12.922;2022-08-21T09:23:04;20.90;89.90
4249;DHT22;8404;48.752;12.922;2022-08-21T09:25:42;21.00;90.10
4249;DHT22;8404;48.752;12.922;2022-08-21T09:28:11;21.20;89.80
4249;DHT22;8404;48.752;12.922;2022-08-21T09:30:41;21.30;88.20
4249;DHT22;8404;48.752;12.922;2022-08-21T09:33:12;21.30;87.20
4249;DHT22;8404;48.752;12.922;2022-08-21T09:35:52;21.30;87.00
4249;DHT22;8404;48.752;12.922;2022-08-21T09:38:27;21.30;86.80
4249;DHT22;8404;48.752;12.922;2022-08-21T09:40:59;21.50;87.60
4249;DHT22;8404;48.752;12.922;2022-08-21T09:43:28;21.50;86.90
4249;DHT22;8404;48.752;12.922;2022-08-21T09:46:09;21.50;85.30
4249;DHT22;8404;48.752;12.922;2022-08-21T09:48:42;21.50;82.70
4249;DHT22;8404;48.752;12.922;2022-08-21T09:51:13;21.40;84.20
4249;DHT22;8404;48.752;12.922;2022-08-21T09:53:45;21.50;83.70
4249;DHT22;8404;48.752;12.922;2022-08-21T09:56:26;21.60;83.80
4249;DHT22;8404;48.752;12.922;2022-08-21T09:59:15;21.70;85.00
4249;DHT22;8404;48.752;12.922;2022-08-21T10:01:46;21.70;83.80
4249;DHT22;8404;48.752;12.922;2022-08-21T10:04:20;21.60;84.60
4249;DHT22;8404;48.752;12.922;2022-08-21T10:06:49;21.60;83.30
4249;DHT22;8404;48.752;12.922;2022-08-21T10:09:22;21.70;84.90
4249;DHT22;8404;48.752;12.922;2022-08-21T10:12:00;21.80;84.20
4249;DHT22;8404;48.752;12.922;2022-08-21T10:14:41;21.90;84.50
4249;DHT22;8404;48.752;12.922;2022-08-21T10:17:17;22.10;81.50
4249;DHT22;8404;48.752;12.922;2022-08-21T10:19:58;22.10;80.60
4249;DHT22;8404;48.752;12.922;2022-08-21T10:22:37;22.00;82.30
4249;DHT22;8404;48.752;12.922;2022-08-21T10:25:14;22.10;81.50
4249;DHT22;8404;48.752;12.922;2022-08-21T10:27:53;22.30;80.40
4249;DHT22;8404;48.752;12.922;2022-08-21T10:30:31;22.50;79.10
4249;DHT22;8404;48.752;12.922;2022-08-21T10:33:12;22.50;76.50
4249;DHT22;8404;48.752;12.922;2022-08-21T10:35:48;22.40;79.60
4249;DHT22;8404;48.752;12.922;2022-08-21T10:38:49;22.50;78.30
4249;DHT22;8404;48.752;12.922;2022-08-21T10:41:52;22.70;78.50
4249;DHT22;8404;48.752;12.922;2022-08-21T10:44:39;22.80;77.70
4249;DHT22;8404;48.752;12.922;2022-08-21T10:47:15;22.80;75.50
4249;DHT22;8404;48.752;12.922;2022-08-21T10:49:52;22.80;76.20
4249;DHT22;8404;48.752;12.922;2022-08-21T10:52:35;22.80;76.80
4249;DHT22;8404;48.752;12.922;2022-08-21T10:55:12;22.80;75.70
4249;DHT22;8404;48.752;12.922;2022-08-21T10:57:46;22.90;74.80
4249;DHT22;8404;48.752;12.922;2022-08-21T11:00:18;23.10;74.90
4249;DHT22;8404;48.752;12.922;2022-08-21T11:02:52;23.10;74.20
4249;DHT22;8404;48.752;12.922;2022-08-21T11:05:27;23.30;75.50
4249;DHT22;8404;48.752;12.922;2022-08-21T11:08:03;23.50;73.50
4249;DHT22;8404;48.752;12.922;2022-08-21T11:10:38;23.60;72.80
4249;DHT22;8404;48.752;12.922;2022-08-21T11:13:30;23.50;72.80
4249;DHT22;8404;48.752;12.922;2022-08-21T11:16:03;23.60;71.00
4249;DHT22;8404;48.752;12.922;2022-08-21T11:18:37;23.30;69.70
4249;DHT22;8404;48.752;12.922;2022-08-21T11:21:15;23.40;70.70
4249;DHT22;8404;48.752;12.922;2022-08-21T11:23:54;23.40;72.10
4249;DHT22;8404;48.752;12.922;2022-08-21T11:26:33;23.50;70.90
4249;DHT22;8404;48.752;12.922;2022-08-21T11:29:08;23.50;71.20
4249;DHT22;8404;48.752;12.922;2022-08-21T11:31:46;23.40;72.60
4249;DHT22;8404;48.752;12.922;2022-08-21T11:34:26;23.40;69.60
4249;DHT22;8404;48.752;12.922;2022-08-21T11:37:04;23.40;70.60
4249;DHT22;8404;48.752;12.922;2022-08-21T11:39:41;23.50;69.60
4249;DHT22;8404;48.752;12.922;2022-08-21T11:42:19;23.50;67.40
4249;DHT22;8404;48.752;12.922;2022-08-21T11:44:59;23.50;68.30
4249;DHT22;8404;48.752;12.922;2022-08-21T11:47:36;23.60;69.80
4249;DHT22;8404;48.752;12.922;2022-08-21T11:50:14;23.70;69.80
4249;DHT22;8404;48.752;12.922;2022-08-21T11:53:06;23.60;68.40
4249;DHT22;8404;48.752;12.922;2022-08-21T11:55:41;23.60;68.10
4249;DHT22;8404;48.752;12.922;2022-08-21T11:58:15;23.70;68.80
4249;DHT22;8404;48.752;12.922;2022-08-21T12:00:49;23.70;67.70
4249;DHT22;8404;48.752;12.922;2022-08-21T12:03:24;23.70;67.30
4249;DHT22;8404;48.752;12.922;2022-08-21T12:05:55;23.80;66.40
4249;DHT22;8404;48.752;12.922;2022-08-21T12:08:30;23.90;66.20
4249;DHT22;8404;48.752;12.922;2022-08-21T12:11:04;23.90;66.40
4249;DHT22;8404;48.752;12.922;2022-08-21T12:13:36;24.00;67.40
4249;DHT22;8404;48.752;12.922;2022-08-21T12:16:13;24.00;67.40
4249;DHT22;8404;48.752;12.922;2022-08-21T12:18:43;24.10;67.40
4249;DHT22;8404;48.752;12.922;2022-08-21T12:21:21;24.10;67.00
4249;DHT22;8404;48.752;12.922;2022-08-21T12:24:03;24.20;67.00
4249;DHT22;8404;48.752;12.922;2022-08-21T12:26:36;24.30;66.80
4249;DHT22;8404;48.752;12.922;2022-08-21T12:29:22;24.30;64.80
4249;DHT22;8404;48.752;12.922;2022-08-21T12:31:55;24.30;65.40
4249;DHT22;8404;48.752;12.922;2022-08-21T12:34:28;24.20;64.60
4249;DHT22;8404;48.752;12.922;2022-08-21T12:37:01;24.20;63.70
4249;DHT22;8404;48.752;12.922;2022-08-21T12:39:32;24.30;62.80
4249;DHT22;8404;48.752;12.922;2022-08-21T12:42:06;24.30;60.90
4249;DHT22;8404;48.752;12.922;2022-08-21T12:44:45;24.30;61.70
4249;DHT22;8404;48.752;12.922;2022-08-21T12:47:24;24.40;62.60
4249;DHT22;8404;48.752;12.922;2022-08-21T12:50:01;24.40;61.70
4249;DHT22;8404;48.752;12.922;2022-08-21T12:52:35;24.50;62.50
4249;DHT22;8404;48.752;12.922;2022-08-21T12:55:07;24.60;61.80
4249;DHT22;8404;48.752;12.922;2022-08-21T12:57:41;24.80;62.80
4249;DHT22;8404;48.752;12.922;2022-08-21T13:00:12;24.70;62.00
4249;DHT22;8404;48.752;12.922;2022-08-21T13:02:47;24.90;61.40
4249;DHT22;8404;48.752;12.922;2022-08-21T13:05:22;25.00;62.20
4249;DHT22;8404;48.752;12.922;2022-08-21T13:07:52;25.10;59.00
4249;DHT22;8404;48.752;12.922;2022-08-21T13:10:22;25.10;60.10
4249;DHT22;8404;48.752;12.922;2022-08-21T13:12:54;25.30;61.20
4249;DHT22;8404;48.752;12.922;2022-08-21T13:15:26;25.30;59.70
4249;DHT22;8404;48.752;12.922;2022-08-21T13:18:01;25.30;59.50
4249;DHT22;8404;48.752;12.922;2022-08-21T13:20:32;25.30;58.60
4249;DHT22;8404;48.752;12.922;2022-08-21T13:23:01;25.20;58.40
4249;DHT22;8404;48.752;12.922;2022-08-21T13:25:34;25.20;57.20
4249;DHT22;8404;48.752;12.922;2022-08-21T13:28:07;25.10;57.60
4249;DHT22;8404;48.752;12.922;2022-08-21T13:30:40;25.20;55.60
4249;DHT22;8404;48.752;12.922;2022-08-21T13:33:11;25.30;56.40
4249;DHT22;8404;48.752;12.922;2022-08-21T13:35:48;25.50;57.00
4249;DHT22;8404;48.752;12.922;2022-08-21T13:38:20;25.50;57.30
4249;DHT22;8404;48.752;12.922;2022-08-21T13:40:56;26.00;56.20
4249;DHT22;8404;48.752;12.922;2022-08-21T13:43:31;27.40;56.00
4249;DHT22;8404;48.752;12.922;2022-08-21T13:46:01;28.50;52.00
4249;DHT22;8404;48.752;12.922;2022-08-21T13:48:33;29.30;50.60
4249;DHT22;8404;48.752;12.922;2022-08-21T13:51:02;29.90;52.40
4249;DHT22;8404;48.752;12.922;2022-08-21T13:53:33;31.10;51.20
4249;DHT22;8404;48.752;12.922;2022-08-21T13:56:04;32.50;49.10
4249;DHT22;8404;48.752;12.922;2022-08-21T13:58:43;33.60;48.80
4249;DHT22;8404;48.752;12.922;2022-08-21T14:01:19;34.80;46.90
4249;DHT22;8404;48.752;12.922;2022-08-21T14:03:52;35.60;45.50
4249;DHT22;8404;48.752;12.922;2022-08-21T14:06:22;35.90;45.10
4249;DHT22;8404;48.752;12.922;2022-08-21T14:08:55;34.90;44.00
4249;DHT22;8404;48.752;12.922;2022-08-21T14:11:24;33.60;43.40
4249;DHT22;8404;48.752;12.922;2022-08-21T14:14:00;32.60;46.60
4249;DHT22;8404;48.752;12.922;2022-08-21T14:16:43;32.50;45.20
4249;DHT22;8404;48.752;12.922;2022-08-21T14:19:19;31.80;45.20
4249;DHT22;8404;48.752;12.922;2022-08-21T14:21:48;31.40;45.90
4249;DHT22;8404;48.752;12.922;2022-08-21T14:24:26;31.00;47.50
4249;DHT22;8404;48.752;12.922;2022-08-21T14:26:57;30.60;47.80
4249;DHT22;8404;48.752;12.922;2022-08-21T14:29:28;30.80;48.30
4249;DHT22;8404;48.752;12.922;2022-08-21T14:32:08;31.90;45.40
4249;DHT22;8404;48.752;12.922;2022-08-21T14:34:51;33.30;42.20
4249;DHT22;8404;48.752;12.922;2022-08-21T14:37:21;33.20;41.80
4249;DHT22;8404;48.752;12.922;2022-08-21T14:39:49;32.40;42.70
4249;DHT22;8404;48.752;12.922;2022-08-21T14:42:18;33.10;43.40
4249;DHT22;8404;48.752;12.922;2022-08-21T14:44:48;34.10;41.30
4249;DHT22;8404;48.752;12.922;2022-08-21T14:47:17;35.20;40.30
4249;DHT22;8404;48.752;12.922;2022-08-21T14:49:45;35.40;37.20
4249;DHT22;8404;48.752;12.922;2022-08-21T14:52:13;35.20;37.50
4249;DHT22;8404;48.752;12.922;2022-08-21T14:54:41;35.60;37.70
4249;DHT22;8404;48.752;12.922;2022-08-21T14:57:11;35.90;37.70
4249;DHT22;8404;48.752;12.922;2022-08-21T14:59:40;35.90;38.10
4249;DHT22;8404;48.752;12.922;2022-08-21T15:02:11;36.50;38.20
4249;DHT22;8404;48.752;12.922;2022-08-21T15:04:39;37.00;35.50
4249;DHT22;8404;48.752;12.922;2022-08-21T15:07:08;36.90;34.00
4249;DHT22;8404;48.752;12.922;2022-08-21T15:09:37;36.30;35.30
4249;DHT22;8404;48.752;12.922;2022-08-21T15:12:06;35.30;37.30
4249;DHT22;8404;48.752;12.922;2022-08-21T15:14:37;35.40;37.80
4249;DHT22;8404;48.752;12.922;2022-08-21T15:17:07;35.90;37.80
4249;DHT22;8404;48.752;12.922;2022-08-21T15:19:38;36.40;37.80
4249;DHT22;8404;48.752;12.922;2022-08-21T15:22:06;36.80;36.60
4249;DHT22;8404;48.752;12.922;2022-08-21T15:24:45;36.80;35.10
4249;DHT22;8404;48.752;12.922;2022-08-21T15:27:14;36.00;34.70
4249;DHT22;8404;48.752;12.922;2022-08-21T15:29:43;35.80;35.30
4249;DHT22;8404;48.752;12.922;2022-08-21T15:32:18;35.80;35.60
4249;DHT22;8404;48.752;12.922;2022-08-21T15:34:49;35.20;36.50
4249;DHT22;8404;48.752;12.922;2022-08-21T15:37:18;34.90;37.00
4249;DHT22;8404;48.752;12.922;2022-08-21T15:39:46;34.90;35.50
4249;DHT22;8404;48.752;12.922;2022-08-21T15:42:20;33.50;35.90
4249;DHT22;8404;48.752;12.922;2022-08-21T15:44:49;33.30;37.30
4249;DHT22;8404;48.752;12.922;2022-08-21T15:47:19;33.20;38.10
4249;DHT22;8404;48.752;12.922;2022-08-21T15:49:50;33.00;36.50
4249;DHT22;8404;48.752;12.922;2022-08-21T15:52:20;32.60;36.80
4249;DHT22;8404;48.752;12.922;2022-08-21T15:54:49;32.40;37.80
4249;DHT22;8404;48.752;12.922;2022-08-21T15:57:20;32.70;37.50
4249;DHT22;8404;48.752;12.922;2022-08-21T15:59:52;32.70;37.50
4249;DHT22;8404;48.752;12.922;2022-08-21T16:02:24;32.80;37.60
4249;DHT22;8404;48.752;12.922;2022-08-21T16:04:55;32.50;38.40
4249;DHT22;8404;48.752;12.922;2022-08-21T16:07:25;32.50;38.60
4249;DHT22;8404;48.752;12.922;2022-08-21T16:09:53;32.20;38.10
4249;DHT22;8404;48.752;12.922;2022-08-21T16:12:26;31.60;38.70
4249;DHT22;8404;48.752;12.922;2022-08-21T16:14:54;31.60;39.40